1990 FELANA (1990065S07083)


On this page: IBTrACS data - Map and Plots - Positions - Intensities - Original source data

Summary

Start Mar 5
End Mar 16
Basin SI
LMI 45 kt
Sources jtwc_sh
reunion
neumann
In WMO? Yes
Previous storm 1990 GREGOARA (SI)
Previous in basin 1990 GREGOARA (SI)
Concurrent storms 1990 VINCENT (SI)
1990 EDISOANA (SI)
1990 HILDA (SP)
1990 GREGOARA (SI)
1990 FELANA (SI)
1990 IVOR (SP)
1990 ALEX (SI)
1990 RAE7 (SP)
Next in basin 1990 ALEX (SI)
Next storm 1990 IVOR (SP)

top of page IBTrACS Data: File Access

top of page HURSAT Data: File Access

Image of storm

top of page Plots:

Map of storm track will not appear if FTP is down
Time series of cyclone Maximum Sustained Wind will not appear if FTP is down
Time series of cyclone Minimum Central Pressure will not appear if FTP is down

top of page Track Data:Position

jtwc_sh reunion neumann
Date Lat Lon Lat Lon Lat Lon
1990-03-05 18:00:00 -6.9 82.9 -6.9 82.9
1990-03-06 00:00:00 -8.0 83.0 -8.0 83.0
1990-03-06 06:00:00 -8.9 83.1 -8.9 83.1
1990-03-06 12:00:00 -9.7 83.3 -9.7 83.3
1990-03-06 18:00:00 -10.7 83.6 -10.7 83.6
1990-03-07 00:00:00 -11.7 83.5 -11.7 83.5
1990-03-07 06:00:00 -12.2 82.7 -13.2 83.2 -12.2 82.7
1990-03-07 12:00:00 -12.4 81.7 -13.3 82.4 -12.4 81.7
1990-03-07 18:00:00 -12.6 80.8 -13.3 81.6 -12.6 80.8
1990-03-08 00:00:00 -12.8 79.8 -13.3 80.7 -12.8 79.8
1990-03-08 06:00:00 -13.1 78.8 -13.6 79.6 -13.1 78.8
1990-03-08 12:00:00 -13.5 77.4 -14.1 78.6 -13.5 77.4
1990-03-08 18:00:00 -14.1 76.2 -14.9 77.9 -14.1 76.2
1990-03-09 00:00:00 -15.0 76.1 -15.7 77.2 -15.0 76.1
1990-03-09 06:00:00 -15.7 76.3 -16.5 76.5 -15.7 76.3
1990-03-09 12:00:00 -16.2 76.0 -17.6 75.4 -16.2 76.0
1990-03-09 18:00:00 -16.6 74.9 -18.3 74.0 -16.6 74.9
1990-03-10 00:00:00 -16.8 73.4 -18.0 72.5 -16.8 73.4
1990-03-10 06:00:00 -16.9 71.7 -17.3 71.3 -16.9 71.7
1990-03-10 12:00:00 -16.6 70.2 -16.5 70.8 -16.6 70.2
1990-03-10 18:00:00 -16.1 69.3 -16.0 70.2 -16.1 69.3
1990-03-11 00:00:00 -16.0 68.8 -15.7 69.7 -16.0 68.8
1990-03-11 06:00:00 -16.3 68.7 -15.5 69.0 -16.3 68.7
1990-03-11 12:00:00 -16.6 68.7 -15.6 68.4 -16.6 68.7
1990-03-11 18:00:00 -16.7 68.7 -16.0 68.0 -16.7 68.7
jtwc_sh reunion neumann
1990-03-12 00:00:00 -16.6 68.7 -16.9 67.7 -16.6 68.7
1990-03-12 06:00:00 -17.2 68.5 -17.6 67.6 -17.2 68.5
1990-03-12 12:00:00 -18.2 68.2 -18.5 67.4 -18.2 68.2
1990-03-12 18:00:00 -19.4 67.7 -19.5 67.1 -19.4 67.7
1990-03-13 00:00:00 -20.4 67.2 -20.3 66.8 -20.4 67.2
1990-03-13 06:00:00 -21.2 66.8 -21.4 66.5 -21.2 66.8
1990-03-13 12:00:00 -22.1 66.6 -22.0 66.0 -22.1 66.6
1990-03-13 18:00:00 -23.1 66.3 -22.8 65.8 -23.1 66.3
1990-03-14 00:00:00 -23.8 65.8 -23.6 65.6 -23.8 65.8
1990-03-14 06:00:00 -24.6 65.5 -24.4 65.4 -24.6 65.5
1990-03-14 12:00:00 -25.6 65.2 -25.9 65.9 -25.6 65.2
1990-03-14 18:00:00 -26.5 65.0 -27.0 66.5 -26.5 65.0
1990-03-15 00:00:00 -27.7 65.3 -28.1 67.1 -27.7 65.3
1990-03-15 06:00:00 -29.0 66.0 -29.5 67.2 -29.0 66.0
1990-03-15 12:00:00 -30.8 67.7
1990-03-15 18:00:00 -31.8 68.1
1990-03-16 00:00:00 -32.9 68.9
1990-03-16 06:00:00 -34.0 70.0

top of pageTrack Data:Intensity

jtwc_sh reunion neumann
Date Wind Pres Wind Pres Wind Pres
1990-03-05 18:00:00 15. 15.
1990-03-06 00:00:00 15. 15.
1990-03-06 06:00:00 15. 15.
1990-03-06 12:00:00 15. 15.
1990-03-06 18:00:00 15. 15.
1990-03-07 00:00:00 15. 15.
1990-03-07 06:00:00 25. 28. 997. 25.
1990-03-07 12:00:00 25. 28. 997. 25.
1990-03-07 18:00:00 25. 28. 997. 25.
1990-03-08 00:00:00 30. 36. 991. 30.
1990-03-08 06:00:00 40. 36. 991. 40.
1990-03-08 12:00:00 40. 36. 991. 40.
1990-03-08 18:00:00 40. 36. 991. 40.
1990-03-09 00:00:00 45. 28. 997. 45.
1990-03-09 06:00:00 45. 28. 997. 45.
1990-03-09 12:00:00 40. 24. 1000. 40.
1990-03-09 18:00:00 35. 24. 1000. 35.
1990-03-10 00:00:00 35. 24. 1000. 35.
1990-03-10 06:00:00 35. 28. 997. 35.
1990-03-10 12:00:00 35. 28. 997. 35.
1990-03-10 18:00:00 35. 36. 991. 35.
1990-03-11 00:00:00 35. 28. 997. 35.
1990-03-11 06:00:00 35. 28. 997. 35.
1990-03-11 12:00:00 35. 36. 991. 35.
1990-03-11 18:00:00 35. 36. 991. 35.
jtwc_sh reunion neumann
1990-03-12 00:00:00 35. 36. 991. 35.
1990-03-12 06:00:00 35. 36. 991. 35.
1990-03-12 12:00:00 35. 36. 991. 35.
1990-03-12 18:00:00 35. 36. 991. 35.
1990-03-13 00:00:00 30. 36. 991. 30.
1990-03-13 06:00:00 30. 36. 991. 30.
1990-03-13 12:00:00 30. 36. 991. 30.
1990-03-13 18:00:00 30. 36. 991. 30.
1990-03-14 00:00:00 30. 36. 991. 30.
1990-03-14 06:00:00 30. 36. 991. 30.
1990-03-14 12:00:00 30. 36. 991. 30.
1990-03-14 18:00:00 30. 36. 991. 30.
1990-03-15 00:00:00 30. 36. 991. 30.
1990-03-15 06:00:00 25. 28. 997. 25.
1990-03-15 12:00:00
1990-03-15 18:00:00
1990-03-16 00:00:00
1990-03-16 06:00:00

top of page Links to source data

Source Source file Format
jtwc_sh bsh221990.txt ATCF
reunion WMO-Best-Tracks.txt:Line=14911:felana WMO (old format)
neumann tracks.sh:Storm=891:FELANA:BSH221990:JTWC HURDAT